Time;durP1;ratioP1;P1;durP2;ratioP2;P2;SDS_P1;SDS_P2;PMS_P1;PMS_P2;Temp;Humidity;BMP_temperature;BMP_pressure;BME280_temperature;BME280_humidity;BME280_pressure;Samples;Min_cycle;Max_cycle;Signal;HPM_P1;HPM_P2
2022/09/01 00:01:53;;;;;;;;;;;17.30;99.90;;;;;;5008174;28;19933;-70
2022/09/01 00:04:20;;;;;;;;;;;17.30;99.90;;;;;;5012073;28;19930;-70
2022/09/01 00:06:48;;;;;;;;;;;17.30;99.90;;;;;;5015364;28;19926;-70
2022/09/01 00:09:16;;;;;;;;;;;17.30;99.90;;;;;;5007188;28;19932;-71
2022/09/01 00:11:44;;;;;;;;;;;17.30;99.90;;;;;;5005874;28;19933;-69
2022/09/01 00:14:11;;;;;;;;;;;17.20;99.90;;;;;;4999250;28;19925;-70
2022/09/01 00:16:39;;;;;;;;;;;17.20;99.90;;;;;;5020575;28;19925;-70
2022/09/01 00:19:06;;;;;;;;;;;17.20;99.90;;;;;;5022263;28;19932;-70
2022/09/01 00:21:34;;;;;;;;;;;17.20;99.90;;;;;;5021518;28;19926;-70
2022/09/01 00:24:01;;;;;;;;;;;17.20;99.90;;;;;;5022706;28;19948;-68
2022/09/01 00:26:28;;;;;;;;;;;17.30;99.90;;;;;;5023620;28;19932;-71
2022/09/01 00:28:55;;;;;;;;;;;17.30;99.90;;;;;;5021460;28;19926;-70
2022/09/01 00:31:22;;;;;;;;;;;17.30;99.90;;;;;;5005951;28;19932;-68
2022/09/01 00:33:51;;;;;;;;;;;17.30;99.90;;;;;;5020976;28;19926;-70
2022/09/01 00:36:18;;;;;;;;;;;17.30;99.90;;;;;;5022300;28;20404;-69
2022/09/01 00:38:45;;;;;;;;;;;17.30;99.90;;;;;;5004149;28;19925;-69
2022/09/01 00:41:12;;;;;;;;;;;17.30;99.90;;;;;;5022323;28;19929;-69
2022/09/01 00:43:40;;;;;;;;;;;17.20;99.90;;;;;;5021675;28;20012;-70
2022/09/01 00:46:08;;;;;;;;;;;17.20;99.90;;;;;;5026269;28;19925;-70
2022/09/01 00:48:36;;;;;;;;;;;17.20;99.90;;;;;;5024308;28;19925;-71
2022/09/01 00:51:05;;;;;;;;;;;17.20;99.90;;;;;;5011178;28;19976;-69
2022/09/01 00:53:32;;;;;;;;;;;17.20;99.90;;;;;;5016395;28;19925;-70
2022/09/01 00:55:59;;;;;;;;;;;17.20;99.90;;;;;;5023175;28;20000;-70
2022/09/01 00:58:26;;;;;;;;;;;17.20;99.90;;;;;;5006510;28;20377;-70
2022/09/01 01:00:53;;;;;;;;;;;17.20;99.90;;;;;;5023278;28;19936;-69
2022/09/01 01:03:20;;;;;;;;;;;17.20;99.90;;;;;;5023186;28;20297;-70
2022/09/01 01:05:52;;;;;;;;;;;17.10;99.90;;;;;;5000428;28;19925;-70
2022/09/01 01:08:26;;;;;;;;;;;17.00;99.90;;;;;;5002221;28;19925;-70
2022/09/01 01:10:53;;;;;;;;;;;17.00;99.90;;;;;;5022835;28;19926;-70
2022/09/01 01:13:20;;;;;;;;;;;17.00;99.90;;;;;;4999780;28;19929;-70
2022/09/01 01:15:47;;;;;;;;;;;17.00;99.90;;;;;;5022094;28;19925;-71
2022/09/01 01:18:15;;;;;;;;;;;17.00;99.90;;;;;;5007703;28;19938;-70
2022/09/01 01:23:30;;;;;;;;;;;16.90;99.90;;;;;;5024131;28;20005;-68
2022/09/01 01:26:00;;;;;;;;;;;17.00;99.90;;;;;;5020077;28;20286;-70
2022/09/01 01:28:29;;;;;;;;;;;17.00;99.90;;;;;;5021020;28;19930;-70
2022/09/01 01:31:00;;;;;;;;;;;17.00;99.90;;;;;;5001463;28;19961;-70
2022/09/01 01:33:29;;;;;;;;;;;16.90;99.90;;;;;;4999916;28;19925;-70
2022/09/01 01:35:57;;;;;;;;;;;16.90;99.90;;;;;;5017750;28;19941;-70
2022/09/01 01:38:26;;;;;;;;;;;16.80;99.90;;;;;;5021515;28;19926;-70
2022/09/01 01:40:55;;;;;;;;;;;16.80;99.90;;;;;;5013497;28;20022;-70
2022/09/01 01:43:26;;;;;;;;;;;16.70;99.90;;;;;;5022479;28;19925;-70
2022/09/01 01:45:55;;;;;;;;;;;16.60;99.90;;;;;;4997920;28;20329;-70
2022/09/01 01:48:27;;;;;;;;;;;16.60;99.90;;;;;;5017371;28;19925;-67
2022/09/01 01:50:56;;;;;;;;;;;16.50;99.90;;;;;;5013395;28;20297;-70
2022/09/01 01:53:24;;;;;;;;;;;16.50;99.90;;;;;;5002159;28;20434;-70
2022/09/01 01:55:52;;;;;;;;;;;16.50;99.90;;;;;;5022686;28;19930;-70
2022/09/01 01:58:20;;;;;;;;;;;16.50;99.90;;;;;;5002596;28;19925;-70
2022/09/01 02:00:49;;;;;;;;;;;16.40;99.90;;;;;;5008233;28;19925;-70
2022/09/01 02:03:17;;;;;;;;;;;16.40;99.90;;;;;;5025402;28;19940;-70
2022/09/01 02:05:45;;;;;;;;;;;16.40;99.90;;;;;;5022684;28;20037;-69
2022/09/01 02:08:14;;;;;;;;;;;16.30;99.90;;;;;;5000975;28;20381;-71
2022/09/01 02:10:42;;;;;;;;;;;16.20;99.90;;;;;;5020156;28;20388;-70
2022/09/01 02:13:15;;;;;;;;;;;16.20;99.90;;;;;;5005418;28;19933;-70
2022/09/01 02:15:43;;;;;;;;;;;16.20;99.90;;;;;;4999984;28;19925;-69
2022/09/01 02:18:13;;;;;;;;;;;16.20;99.90;;;;;;5015158;28;19925;-70
2022/09/01 02:20:39;;;;;;;;;;;16.20;99.90;;;;;;5019797;28;19972;-68
2022/09/01 02:23:09;;;;;;;;;;;16.20;99.90;;;;;;5002261;28;20317;-67
2022/09/01 02:25:38;;;;;;;;;;;16.20;99.90;;;;;;5021283;28;19925;-70
2022/09/01 02:28:08;;;;;;;;;;;16.20;99.90;;;;;;5024202;28;19929;-70
2022/09/01 02:30:36;;;;;;;;;;;16.20;99.90;;;;;;5024246;28;19968;-70
2022/09/01 02:33:03;;;;;;;;;;;16.10;99.90;;;;;;5023707;28;19932;-70
2022/09/01 02:35:33;;;;;;;;;;;16.10;99.90;;;;;;5004026;28;20336;-70
2022/09/01 02:38:00;;;;;;;;;;;16.10;99.90;;;;;;5020973;28;19925;-70
2022/09/01 02:40:29;;;;;;;;;;;16.10;99.90;;;;;;5019304;28;19925;-69
2022/09/01 02:42:58;;;;;;;;;;;16.10;99.90;;;;;;5020353;28;19932;-69
2022/09/01 02:45:25;;;;;;;;;;;16.10;99.90;;;;;;5004299;28;19936;-70
2022/09/01 02:47:52;;;;;;;;;;;16.10;99.90;;;;;;5006806;28;19930;-70
2022/09/01 02:50:21;;;;;;;;;;;16.10;99.90;;;;;;5017987;28;19925;-70
2022/09/01 02:52:51;;;;;;;;;;;16.10;99.90;;;;;;5007777;28;19925;-70
2022/09/01 02:55:19;;;;;;;;;;;16.10;99.90;;;;;;5023967;28;19925;-70
2022/09/01 02:57:47;;;;;;;;;;;16.10;99.90;;;;;;5022245;28;19933;-70
2022/09/01 03:00:21;;;;;;;;;;;16.10;99.90;;;;;;5024161;28;20383;-70
2022/09/01 03:02:50;;;;;;;;;;;16.00;99.90;;;;;;5023273;28;20332;-70
2022/09/01 03:05:24;;;;;;;;;;;16.00;99.90;;;;;;5023918;28;19926;-70
2022/09/01 03:07:56;;;;;;;;;;;15.90;99.90;;;;;;4997321;28;19925;-70
2022/09/01 03:10:31;;;;;;;;;;;15.90;99.90;;;;;;5023730;28;19925;-69
2022/09/01 03:13:01;;;;;;;;;;;15.90;99.90;;;;;;5021236;28;20015;-70
2022/09/01 03:15:28;;;;;;;;;;;15.90;99.90;;;;;;5009132;28;19940;-71
2022/09/01 03:17:58;;;;;;;;;;;15.80;99.90;;;;;;5021165;28;19936;-70
2022/09/01 03:20:25;;;;;;;;;;;15.70;99.90;;;;;;5023160;28;19929;-69
2022/09/01 03:22:52;;;;;;;;;;;15.70;99.90;;;;;;5028503;28;19929;-71
2022/09/01 03:25:23;;;;;;;;;;;15.70;99.90;;;;;;5003626;28;20028;-70
2022/09/01 03:27:51;;;;;;;;;;;15.70;99.90;;;;;;5025834;28;19929;-70
2022/09/01 03:30:18;;;;;;;;;;;15.60;99.90;;;;;;5002988;28;19925;-71
2022/09/01 03:32:46;;;;;;;;;;;15.50;99.90;;;;;;5010361;28;20059;-70
2022/09/01 03:35:13;;;;;;;;;;;15.50;99.90;;;;;;5003519;28;19933;-70
2022/09/01 03:37:43;;;;;;;;;;;15.40;99.90;;;;;;5023213;28;19926;-70
2022/09/01 03:40:11;;;;;;;;;;;15.40;99.90;;;;;;5022190;28;19925;-70
2022/09/01 03:42:40;;;;;;;;;;;15.40;99.90;;;;;;5003459;28;19932;-69
2022/09/01 03:45:08;;;;;;;;;;;15.40;99.90;;;;;;5003659;28;20500;-70
2022/09/01 03:47:39;;;;;;;;;;;15.40;99.90;;;;;;5009236;28;20479;-69
2022/09/01 03:50:09;;;;;;;;;;;15.40;99.90;;;;;;5009585;28;20008;-71
2022/09/01 03:52:38;;;;;;;;;;;15.30;99.90;;;;;;4995103;28;20016;-70
2022/09/01 03:55:05;;;;;;;;;;;15.30;99.90;;;;;;5009020;28;19925;-70
2022/09/01 03:57:32;;;;;;;;;;;15.30;99.90;;;;;;5011338;28;19925;-70
2022/09/01 04:00:01;;;;;;;;;;;15.30;99.90;;;;;;5024793;28;19937;-70
2022/09/01 04:02:29;;;;;;;;;;;15.30;99.90;;;;;;5003244;28;19933;-71
2022/09/01 04:04:57;;;;;;;;;;;15.20;99.90;;;;;;5000487;28;19929;-69
2022/09/01 04:07:26;;;;;;;;;;;15.00;99.90;;;;;;5015218;28;20381;-70
2022/09/01 04:09:53;;;;;;;;;;;15.00;99.90;;;;;;5023644;28;20352;-70
2022/09/01 04:12:20;;;;;;;;;;;15.00;99.90;;;;;;4996978;28;19925;-70
2022/09/01 04:14:51;;;;;;;;;;;15.00;99.90;;;;;;5018244;28;19926;-70
2022/09/01 04:20:08;;;;;;;;;;;14.90;99.90;;;;;;5015439;28;19988;-71
2022/09/01 04:22:34;;;;;;;;;;;14.90;99.90;;;;;;5002930;28;19926;-69
2022/09/01 04:25:01;;;;;;;;;;;14.80;99.90;;;;;;4995971;28;19926;-69
2022/09/01 04:27:28;;;;;;;;;;;14.70;99.90;;;;;;5002908;28;19926;-68
2022/09/01 04:29:55;;;;;;;;;;;14.60;99.90;;;;;;5010948;28;19996;-70
2022/09/01 04:32:24;;;;;;;;;;;14.60;99.90;;;;;;5024110;28;19930;-70
2022/09/01 04:34:57;;;;;;;;;;;14.60;99.90;;;;;;5014084;28;19932;-71
2022/09/01 04:37:24;;;;;;;;;;;14.50;99.90;;;;;;5002704;28;19926;-69
2022/09/01 04:39:57;;;;;;;;;;;14.50;99.90;;;;;;5010085;28;20361;-70
2022/09/01 04:42:26;;;;;;;;;;;14.50;99.90;;;;;;4996419;28;20301;-70
2022/09/01 04:44:53;;;;;;;;;;;14.50;99.90;;;;;;5023465;28;19933;-70
2022/09/01 04:47:28;;;;;;;;;;;14.40;99.90;;;;;;4993724;28;19932;-70
2022/09/01 04:49:59;;;;;;;;;;;14.40;99.90;;;;;;5013170;28;19929;-70
2022/09/01 04:52:26;;;;;;;;;;;14.40;99.90;;;;;;5012791;28;19929;-69
2022/09/01 04:54:54;;;;;;;;;;;14.40;99.90;;;;;;5016710;28;19929;-70
2022/09/01 04:57:21;;;;;;;;;;;14.40;99.90;;;;;;5005464;28;19979;-71
2022/09/01 04:59:48;;;;;;;;;;;14.30;99.90;;;;;;5020975;28;19925;-70
2022/09/01 05:02:16;;;;;;;;;;;14.30;99.90;;;;;;5016785;28;19925;-71
2022/09/01 05:04:45;;;;;;;;;;;14.20;99.90;;;;;;5009763;28;19947;-72
2022/09/01 05:07:16;;;;;;;;;;;14.20;99.90;;;;;;5017468;28;20313;-70
2022/09/01 05:09:44;;;;;;;;;;;14.20;99.90;;;;;;5016796;28;19925;-72
2022/09/01 05:12:31;;;;;;;;;;;14.30;99.90;;;;;;5016076;28;19929;-72
2022/09/01 05:14:57;;;;;;;;;;;14.20;99.90;;;;;;5006735;28;19937;-72
2022/09/01 05:17:27;;;;;;;;;;;14.30;99.90;;;;;;5016849;28;20385;-72
2022/09/01 05:19:55;;;;;;;;;;;14.40;99.90;;;;;;5014417;28;19972;-71
2022/09/01 05:22:24;;;;;;;;;;;14.40;99.90;;;;;;5017193;28;20453;-71
2022/09/01 05:24:55;;;;;;;;;;;14.40;99.90;;;;;;5004325;28;20369;-70
2022/09/01 05:27:22;;;;;;;;;;;14.40;99.90;;;;;;5018937;28;19926;-71
2022/09/01 05:29:49;;;;;;;;;;;14.40;99.90;;;;;;5002543;28;19925;-72
2022/09/01 05:32:16;;;;;;;;;;;14.50;99.90;;;;;;5001937;28;19936;-73
2022/09/01 05:34:43;;;;;;;;;;;14.60;99.90;;;;;;5005410;28;20309;-72
2022/09/01 05:37:11;;;;;;;;;;;14.60;99.90;;;;;;5018425;28;19929;-71
2022/09/01 05:39:40;;;;;;;;;;;14.60;99.90;;;;;;5021471;28;19969;-72
2022/09/01 05:42:07;;;;;;;;;;;14.70;99.90;;;;;;5024241;28;20266;-72
2022/09/01 05:44:35;;;;;;;;;;;14.80;99.90;;;;;;5004009;28;20364;-72
2022/09/01 05:47:05;;;;;;;;;;;14.90;99.90;;;;;;4996724;28;19926;-71
2022/09/01 05:49:32;;;;;;;;;;;14.90;99.90;;;;;;5003914;28;19925;-72
2022/09/01 05:52:02;;;;;;;;;;;15.00;99.90;;;;;;5021061;28;19925;-72
2022/09/01 05:54:31;;;;;;;;;;;15.10;99.90;;;;;;5017720;28;20028;-71
2022/09/01 05:57:00;;;;;;;;;;;15.10;99.90;;;;;;5008340;28;20389;-71
2022/09/01 05:59:30;;;;;;;;;;;15.20;99.90;;;;;;5017959;28;19929;-72
2022/09/01 06:02:08;;;;;;;;;;;15.20;99.90;;;;;;5020382;28;19925;-72
2022/09/01 06:04:40;;;;;;;;;;;15.30;99.90;;;;;;5022393;28;19932;-71
2022/09/01 06:07:13;;;;;;;;;;;15.30;99.90;;;;;;5016799;28;20023;-71
2022/09/01 06:09:43;;;;;;;;;;;15.40;99.90;;;;;;5008172;28;20301;-71
2022/09/01 06:12:16;;;;;;;;;;;15.50;99.90;;;;;;5021524;28;20381;-72
2022/09/01 06:14:43;;;;;;;;;;;15.60;99.90;;;;;;5022710;28;19930;-71
2022/09/01 06:17:15;;;;;;;;;;;15.80;99.90;;;;;;5018322;28;20351;-71
2022/09/01 06:19:42;;;;;;;;;;;15.90;99.90;;;;;;5016878;28;19932;-72
2022/09/01 06:22:10;;;;;;;;;;;16.00;99.90;;;;;;5005106;28;19925;-71
2022/09/01 06:24:38;;;;;;;;;;;16.00;99.90;;;;;;5004914;28;19925;-72
2022/09/01 06:27:06;;;;;;;;;;;16.20;99.90;;;;;;5022091;28;20028;-71
2022/09/01 06:29:34;;;;;;;;;;;16.20;99.90;;;;;;5018419;28;19932;-71
2022/09/01 06:32:01;;;;;;;;;;;16.30;99.90;;;;;;5020992;28;19933;-71
2022/09/01 06:34:28;;;;;;;;;;;16.40;99.90;;;;;;5018889;28;20020;-71
2022/09/01 06:36:55;;;;;;;;;;;16.50;99.90;;;;;;5018632;28;19929;-70
2022/09/01 06:39:22;;;;;;;;;;;16.60;99.90;;;;;;5020270;28;19925;-71
2022/09/01 06:41:53;;;;;;;;;;;16.70;99.90;;;;;;5002732;28;19933;-71
2022/09/01 06:44:25;;;;;;;;;;;16.80;99.90;;;;;;5002598;28;19926;-71
2022/09/01 06:47:03;;;;;;;;;;;16.90;99.90;;;;;;5003011;28;19925;-70
2022/09/01 06:49:33;;;;;;;;;;;17.00;99.90;;;;;;5012006;28;20393;-71
2022/09/01 06:52:01;;;;;;;;;;;17.10;99.90;;;;;;4998529;28;19960;-71
2022/09/01 06:54:32;;;;;;;;;;;17.30;99.90;;;;;;5019159;28;19999;-71
2022/09/01 06:57:02;;;;;;;;;;;17.40;99.90;;;;;;5000616;28;20286;-71
2022/09/01 06:59:30;;;;;;;;;;;17.50;99.90;;;;;;5016511;28;19926;-70
2022/09/01 07:02:00;;;;;;;;;;;17.70;99.90;;;;;;5020324;28;20344;-71
2022/09/01 07:04:32;;;;;;;;;;;17.70;99.90;;;;;;5014042;28;19925;-72
2022/09/01 07:07:06;;;;;;;;;;;17.80;99.90;;;;;;4995387;28;19926;-70
2022/09/01 07:09:52;;;;;;;;;;;17.90;99.90;;;;;;5011106;28;19931;-70
2022/09/01 07:12:40;;;;;;;;;;;18.00;99.90;;;;;;5004180;28;19929;-70
2022/09/01 07:15:07;;;;;;;;;;;18.10;99.90;;;;;;5005709;28;19932;-71
2022/09/01 07:17:34;;;;;;;;;;;18.20;99.90;;;;;;4999627;28;19933;-71
2022/09/01 07:20:03;;;;;;;;;;;18.30;99.90;;;;;;5013025;28;19932;-70
2022/09/01 07:22:30;;;;;;;;;;;18.50;99.90;;;;;;5019606;28;19926;-70
2022/09/01 07:24:57;;;;;;;;;;;18.60;99.90;;;;;;5004919;28;20020;-70
2022/09/01 07:27:49;;;;;;;;;;;18.70;99.90;;;;;;5002786;28;20409;-69
2022/09/01 07:30:17;;;;;;;;;;;18.80;99.90;;;;;;5017681;28;19965;-69
2022/09/01 07:32:45;;;;;;;;;;;18.90;99.90;;;;;;5009745;28;20024;-66
2022/09/01 07:35:15;;;;;;;;;;;19.00;99.90;;;;;;5013136;28;19925;-69
2022/09/01 07:37:43;;;;;;;;;;;19.00;99.90;;;;;;5014134;28;19932;-68
2022/09/01 07:40:11;;;;;;;;;;;19.10;99.90;;;;;;5002917;28;19926;-68
2022/09/01 07:43:02;;;;;;;;;;;19.20;99.90;;;;;;5012346;28;19932;-68
2022/09/01 07:45:48;;;;;;;;;;;19.30;99.90;;;;;;5010849;28;19932;-69
2022/09/01 07:48:19;;;;;;;;;;;19.30;99.90;;;;;;5022398;28;19933;-69
2022/09/01 07:50:51;;;;;;;;;;;19.40;99.90;;;;;;5005106;28;19934;-69
2022/09/01 07:53:21;;;;;;;;;;;19.40;99.90;;;;;;5005764;28;19932;-69
2022/09/01 07:55:49;;;;;;;;;;;19.40;99.90;;;;;;5003009;28;20420;-69
2022/09/01 07:58:17;;;;;;;;;;;19.40;99.90;;;;;;5003932;28;19925;-70
2022/09/01 08:00:47;;;;;;;;;;;19.30;99.90;;;;;;5022334;28;19948;-69
2022/09/01 08:03:17;;;;;;;;;;;19.30;99.90;;;;;;5023090;28;19961;-70
2022/09/01 08:05:46;;;;;;;;;;;19.30;99.90;;;;;;5003313;28;20381;-70
2022/09/01 08:08:14;;;;;;;;;;;19.40;99.90;;;;;;5001037;28;20437;-70
2022/09/01 08:10:41;;;;;;;;;;;19.40;99.90;;;;;;5022329;28;19925;-68
2022/09/01 08:13:09;;;;;;;;;;;19.50;99.90;;;;;;5009888;28;19964;-70
2022/09/01 08:15:37;;;;;;;;;;;19.50;99.90;;;;;;5022761;28;20010;-69
2022/09/01 08:18:04;;;;;;;;;;;19.50;99.90;;;;;;5019558;28;19925;-70
2022/09/01 08:20:36;;;;;;;;;;;19.70;99.90;;;;;;5018485;28;19925;-69
2022/09/01 08:23:19;;;;;;;;;;;19.70;99.90;;;;;;5023493;28;19925;-70
2022/09/01 08:25:47;;;;;;;;;;;19.80;99.90;;;;;;4998079;28;20360;-70
2022/09/01 08:28:15;;;;;;;;;;;19.70;99.90;;;;;;5004085;28;19931;-70
2022/09/01 08:30:47;;;;;;;;;;;19.80;99.90;;;;;;5009286;28;20301;-69
2022/09/01 08:33:15;;;;;;;;;;;19.90;99.90;;;;;;5013379;28;19930;-69
2022/09/01 08:35:46;;;;;;;;;;;20.00;99.90;;;;;;5022241;28;19926;-69
2022/09/01 08:38:13;;;;;;;;;;;20.00;99.90;;;;;;5022377;28;19925;-69
2022/09/01 08:40:43;;;;;;;;;;;20.10;99.90;;;;;;4993823;28;19925;-68
2022/09/01 08:43:14;;;;;;;;;;;20.10;99.90;;;;;;5007418;28;19926;-69
2022/09/01 08:45:46;;;;;;;;;;;20.20;99.90;;;;;;5006636;28;19925;-69
2022/09/01 08:48:14;;;;;;;;;;;20.30;99.90;;;;;;5022144;28;19932;-69
2022/09/01 08:50:42;;;;;;;;;;;20.40;99.90;;;;;;5002276;28;19975;-66
2022/09/01 08:53:25;;;;;;;;;;;20.50;99.90;;;;;;4983162;28;20301;-68
2022/09/01 08:55:55;;;;;;;;;;;20.60;99.90;;;;;;4993299;28;19926;-69
2022/09/01 08:58:22;;;;;;;;;;;20.60;99.90;;;;;;4982329;28;19965;-69
2022/09/01 09:01:26;;;;;;;;;;;20.70;99.90;;;;;;4991712;28;20466;-69
2022/09/01 09:03:59;;;;;;;;;;;20.80;99.90;;;;;;4974812;28;20050;-69
2022/09/01 09:06:33;;;;;;;;;;;20.90;99.90;;;;;;4975391;28;19926;-69
2022/09/01 09:09:02;;;;;;;;;;;21.00;99.90;;;;;;4994672;28;19926;-68
2022/09/01 09:11:49;;;;;;;;;;;21.00;99.90;;;;;;4983395;28;19980;-69
2022/09/01 09:14:22;;;;;;;;;;;21.00;99.90;;;;;;4982306;28;19961;-68
2022/09/01 09:16:52;;;;;;;;;;;21.00;99.90;;;;;;4992561;28;19933;-69
2022/09/01 09:19:22;;;;;;;;;;;21.10;99.90;;;;;;4990740;28;19933;-69
2022/09/01 09:21:50;;;;;;;;;;;21.10;99.90;;;;;;4991085;28;19996;-69
2022/09/01 09:24:21;;;;;;;;;;;21.30;99.90;;;;;;4993502;28;19932;-69
2022/09/01 09:26:48;;;;;;;;;;;21.40;99.90;;;;;;4983053;28;19942;-71
2022/09/01 09:29:15;;;;;;;;;;;21.50;99.90;;;;;;4985263;28;19937;-70
2022/09/01 09:31:47;;;;;;;;;;;21.50;99.90;;;;;;4983667;28;20449;-70
2022/09/01 09:34:31;;;;;;;;;;;21.60;99.90;;;;;;5000985;28;19926;-70
2022/09/01 09:37:00;;;;;;;;;;;21.70;99.90;;;;;;4989031;28;19961;-70
2022/09/01 09:39:27;;;;;;;;;;;21.90;99.90;;;;;;5000646;28;19956;-70
2022/09/01 09:42:02;;;;;;;;;;;22.00;99.90;;;;;;4983066;28;20400;-69
2022/09/01 09:44:31;;;;;;;;;;;22.10;99.90;;;;;;5006423;28;20352;-70
2022/09/01 09:47:00;;;;;;;;;;;22.20;99.90;;;;;;4999515;28;20008;-71
2022/09/01 09:49:28;;;;;;;;;;;22.30;99.90;;;;;;4995446;28;19926;-71
2022/09/01 09:51:55;;;;;;;;;;;22.40;99.90;;;;;;4993682;28;19925;-70
2022/09/01 09:54:23;;;;;;;;;;;22.50;99.90;;;;;;5029198;28;19929;-71
2022/09/01 09:57:03;;;;;;;;;;;22.60;99.90;;;;;;5012948;28;19925;-71
2022/09/01 09:59:31;;;;;;;;;;;22.60;99.90;;;;;;5012207;28;19930;-70
2022/09/01 10:02:00;;;;;;;;;;;22.70;99.90;;;;;;5030385;28;20131;-70
2022/09/01 10:04:34;;;;;;;;;;;22.80;99.90;;;;;;5012179;28;19926;-70
2022/09/01 10:07:01;;;;;;;;;;;22.80;99.90;;;;;;5016781;28;19925;-71
2022/09/01 10:09:35;;;;;;;;;;;22.90;99.90;;;;;;5012785;28;19953;-70
2022/09/01 10:12:03;;;;;;;;;;;23.00;99.90;;;;;;5012957;28;19929;-70
2022/09/01 10:14:31;;;;;;;;;;;23.10;99.90;;;;;;5011662;28;19952;-70
2022/09/01 10:17:01;;;;;;;;;;;23.30;99.90;;;;;;5028311;28;19999;-70
2022/09/01 10:19:29;;;;;;;;;;;23.40;99.90;;;;;;5013872;28;19925;-71
2022/09/01 10:21:56;;;;;;;;;;;23.50;99.90;;;;;;5011966;28;20321;-70
2022/09/01 10:24:25;;;;;;;;;;;23.70;99.90;;;;;;5013989;28;20360;-70
2022/09/01 10:26:53;;;;;;;;;;;23.90;99.90;;;;;;5028494;28;19967;-70
2022/09/01 10:29:22;;;;;;;;;;;23.90;99.90;;;;;;5013132;28;19933;-70
2022/09/01 10:31:48;;;;;;;;;;;23.90;99.90;;;;;;5028377;28;19925;-70
2022/09/01 10:34:18;;;;;;;;;;;23.90;99.90;;;;;;5015098;28;19925;-70
2022/09/01 10:36:46;;;;;;;;;;;23.90;99.90;;;;;;5028157;28;19984;-70
2022/09/01 10:39:13;;;;;;;;;;;24.00;99.90;;;;;;5013997;28;19933;-70
2022/09/01 10:41:49;;;;;;;;;;;24.20;99.90;;;;;;5015589;28;19964;-70
2022/09/01 10:44:19;;;;;;;;;;;24.40;99.90;;;;;;5028498;28;19972;-70
2022/09/01 10:46:46;;;;;;;;;;;24.50;99.90;;;;;;5014869;28;20021;-71
2022/09/01 10:49:17;;;;;;;;;;;24.70;99.90;;;;;;5011284;28;19925;-70
2022/09/01 10:51:47;;;;;;;;;;;24.90;99.90;;;;;;5011304;28;19973;-71
2022/09/01 10:54:32;;;;;;;;;;;25.00;99.90;;;;;;5011346;28;19925;-71
2022/09/01 10:57:00;;;;;;;;;;;25.30;99.90;;;;;;5011650;28;19934;-71
2022/09/01 10:59:28;;;;;;;;;;;25.40;99.90;;;;;;5010662;28;19925;-70
2022/09/01 11:02:08;;;;;;;;;;;25.40;99.90;;;;;;5011272;28;19929;-69
2022/09/01 11:04:54;;;;;;;;;;;25.40;99.90;;;;;;5027771;28;20036;-70
2022/09/01 11:07:32;;;;;;;;;;;25.40;99.90;;;;;;5009881;28;19929;-70
2022/09/01 11:10:21;;;;;;;;;;;25.60;99.90;;;;;;5010900;28;19983;-69
2022/09/01 11:12:59;;;;;;;;;;;25.80;99.90;;;;;;5011304;28;19969;-71
2022/09/01 11:15:34;;;;;;;;;;;26.00;99.90;;;;;;5011349;28;20033;-70
2022/09/01 11:18:01;;;;;;;;;;;26.20;99.90;;;;;;5010877;28;19948;-71
2022/09/01 11:20:29;;;;;;;;;;;26.60;99.90;;;;;;5010931;28;20356;-70
2022/09/01 11:23:02;;;;;;;;;;;26.80;99.90;;;;;;5027325;28;20467;-70
2022/09/01 11:25:34;;;;;;;;;;;26.70;99.90;;;;;;5011225;28;19930;-70
2022/09/01 11:28:04;;;;;;;;;;;26.60;99.90;;;;;;5010090;28;19937;-71
2022/09/01 11:30:33;;;;;;;;;;;29.00;99.90;;;;;;5010282;28;19925;-70
2022/09/01 11:33:05;;;;;;;;;;;33.30;99.90;;;;;;5010156;28;19933;-69
2022/09/01 11:35:32;;;;;;;;;;;35.90;99.60;;;;;;5027570;28;20060;-69
2022/09/01 11:38:03;;;;;;;;;;;37.40;96.50;;;;;;5015761;28;19929;-70
2022/09/01 11:40:31;;;;;;;;;;;37.80;94.90;;;;;;5007180;28;19952;-69
2022/09/01 11:43:00;;;;;;;;;;;39.60;94.10;;;;;;5026671;28;19926;-71
2022/09/01 11:45:30;;;;;;;;;;;40.60;93.20;;;;;;5010654;28;19925;-67
2022/09/01 11:47:58;;;;;;;;;;;36.70;92.00;;;;;;5009941;28;19926;-70
2022/09/01 11:50:26;;;;;;;;;;;36.40;93.10;;;;;;5010371;28;19975;-70
2022/09/01 11:52:54;;;;;;;;;;;37.10;93.00;;;;;;5010408;28;19929;-70
2022/09/01 11:55:30;;;;;;;;;;;38.90;92.40;;;;;;5010702;28;19932;-71
2022/09/01 11:57:57;;;;;;;;;;;39.10;91.20;;;;;;5009100;28;19929;-72
2022/09/01 12:00:28;;;;;;;;;;;39.90;91.40;;;;;;5010282;28;19925;-70
2022/09/01 12:02:55;;;;;;;;;;;40.30;90.70;;;;;;5010479;28;19925;-70
2022/09/01 12:05:24;;;;;;;;;;;41.60;90.60;;;;;;5010587;28;19968;-71
2022/09/01 12:07:51;;;;;;;;;;;42.00;89.90;;;;;;5026545;28;19984;-70
2022/09/01 12:10:19;;;;;;;;;;;42.20;90.20;;;;;;5009899;28;19925;-70
2022/09/01 12:12:48;;;;;;;;;;;42.00;88.00;;;;;;5026512;28;20005;-70
2022/09/01 12:15:18;;;;;;;;;;;39.80;87.10;;;;;;5009962;28;19925;-70
2022/09/01 12:17:45;;;;;;;;;;;36.90;89.40;;;;;;5004684;28;19949;-70
2022/09/01 12:20:19;;;;;;;;;;;35.10;90.00;;;;;;5007659;28;19926;-72
2022/09/01 12:22:45;;;;;;;;;;;33.80;90.20;;;;;;5012012;28;19961;-71
2022/09/01 12:25:18;;;;;;;;;;;36.30;91.40;;;;;;5009934;28;20445;-72
2022/09/01 12:27:45;;;;;;;;;;;34.90;90.40;;;;;;5022678;28;19996;-71
2022/09/01 12:30:13;;;;;;;;;;;33.40;90.90;;;;;;5009772;28;19933;-72
2022/09/01 12:32:40;;;;;;;;;;;32.00;91.60;;;;;;5009544;28;19969;-70
2022/09/01 12:35:16;;;;;;;;;;;30.60;92.50;;;;;;5009999;28;19930;-71
2022/09/01 12:37:43;;;;;;;;;;;29.80;93.20;;;;;;5009741;28;20385;-70
2022/09/01 12:40:21;;;;;;;;;;;29.80;94.00;;;;;;5006619;28;19929;-71
2022/09/01 12:42:49;;;;;;;;;;;29.10;93.90;;;;;;5022825;28;19926;-71
2022/09/01 12:45:35;;;;;;;;;;;28.30;94.20;;;;;;5013108;28;19925;-71
2022/09/01 12:48:02;;;;;;;;;;;27.90;94.50;;;;;;5009674;28;19926;-71
2022/09/01 12:50:34;;;;;;;;;;;28.50;94.40;;;;;;5009638;28;19925;-73
2022/09/01 12:53:02;;;;;;;;;;;29.70;93.60;;;;;;5026239;28;19929;-71
2022/09/01 12:55:30;;;;;;;;;;;32.10;92.50;;;;;;5008307;28;19980;-69
2022/09/01 12:57:57;;;;;;;;;;;32.80;92.30;;;;;;5009540;28;19926;-73
2022/09/01 13:00:27;;;;;;;;;;;32.40;92.00;;;;;;5026132;28;19976;-73
2022/09/01 13:03:05;;;;;;;;;;;31.80;92.40;;;;;;5009776;28;20321;-74
2022/09/01 13:05:33;;;;;;;;;;;31.10;92.90;;;;;;5026517;28;19933;-74
2022/09/01 13:08:01;;;;;;;;;;;30.30;93.00;;;;;;5009806;28;20320;-73
2022/09/01 13:10:36;;;;;;;;;;;29.60;93.50;;;;;;5025662;28;19925;-73
2022/09/01 13:13:04;;;;;;;;;;;29.20;93.90;;;;;;5009599;28;19930;-71
2022/09/01 13:15:32;;;;;;;;;;;29.00;94.10;;;;;;5026103;28;20389;-73
2022/09/01 13:17:59;;;;;;;;;;;30.10;94.30;;;;;;5009411;28;20401;-70
2022/09/01 13:20:26;;;;;;;;;;;30.60;94.00;;;;;;5008687;28;19984;-71
2022/09/01 13:22:53;;;;;;;;;;;31.80;93.90;;;;;;5027545;28;19933;-73
2022/09/01 13:25:21;;;;;;;;;;;32.10;92.90;;;;;;5027671;28;19925;-72
2022/09/01 13:27:48;;;;;;;;;;;31.80;93.00;;;;;;5012524;28;20353;-72
2022/09/01 13:30:16;;;;;;;;;;;31.30;92.30;;;;;;5008961;28;19969;-74
2022/09/01 13:32:45;;;;;;;;;;;30.50;92.60;;;;;;5006454;28;19936;-73
2022/09/01 13:35:11;;;;;;;;;;;30.00;93.60;;;;;;5012995;28;19929;-74
2022/09/01 13:37:38;;;;;;;;;;;31.20;93.50;;;;;;5011078;28;19925;-74
2022/09/01 13:40:07;;;;;;;;;;;31.80;93.30;;;;;;5015797;28;19926;-74
2022/09/01 13:42:34;;;;;;;;;;;32.10;92.30;;;;;;5007015;28;19926;-74
2022/09/01 13:45:01;;;;;;;;;;;31.50;93.10;;;;;;5022863;28;19929;-75
2022/09/01 13:47:28;;;;;;;;;;;31.40;93.10;;;;;;5012158;28;19925;-74
2022/09/01 13:49:57;;;;;;;;;;;32.60;92.50;;;;;;5008742;28;19933;-73
2022/09/01 13:52:23;;;;;;;;;;;32.60;92.70;;;;;;5025547;28;19930;-72
2022/09/01 13:54:50;;;;;;;;;;;32.40;92.20;;;;;;5032590;28;19932;-70
2022/09/01 13:57:17;;;;;;;;;;;32.00;92.80;;;;;;5013664;28;19975;-71
2022/09/01 13:59:44;;;;;;;;;;;31.80;92.40;;;;;;5011575;28;20063;-72
2022/09/01 14:02:10;;;;;;;;;;;33.10;93.00;;;;;;5012298;28;19953;-70
2022/09/01 14:04:37;;;;;;;;;;;35.10;92.20;;;;;;5011938;28;20424;-70
2022/09/01 14:07:05;;;;;;;;;;;36.00;91.60;;;;;;5012112;28;20377;-68
2022/09/01 14:09:32;;;;;;;;;;;37.60;91.00;;;;;;5016582;28;19925;-71
2022/09/01 14:11:59;;;;;;;;;;;38.60;91.00;;;;;;5011607;28;19926;-79
2022/09/01 14:14:26;;;;;;;;;;;39.60;90.60;;;;;;5012288;28;20358;-70
2022/09/01 14:16:53;;;;;;;;;;;39.40;89.30;;;;;;5012060;28;19956;-73
2022/09/01 14:19:20;;;;;;;;;;;39.40;90.00;;;;;;5011602;28;19926;-71
2022/09/01 14:21:48;;;;;;;;;;;39.30;85.90;;;;;;5011627;28;19960;-70
2022/09/01 14:24:19;;;;;;;;;;;37.90;88.70;;;;;;5012045;28;20032;-70
2022/09/01 14:26:46;;;;;;;;;;;36.40;88.60;;;;;;5011774;28;19925;-70
2022/09/01 14:29:13;;;;;;;;;;;35.70;90.60;;;;;;5011054;28;20393;-70
2022/09/01 14:31:42;;;;;;;;;;;35.10;90.10;;;;;;5011773;28;19932;-69
2022/09/01 14:34:11;;;;;;;;;;;35.40;90.50;;;;;;5011373;28;19949;-70
2022/09/01 14:36:38;;;;;;;;;;;36.30;90.00;;;;;;5008551;28;20382;-70